createdAt,value
2018-04-22T00:00:37.939Z,1010.45
2018-04-22T00:01:37.869Z,1010.46
2018-04-22T00:02:37.800Z,1010.45
2018-04-22T00:03:37.729Z,1010.39
2018-04-22T00:04:37.657Z,1010.37
2018-04-22T00:05:37.589Z,1010.36
2018-04-22T00:06:37.519Z,1010.36
2018-04-22T00:07:37.447Z,1010.36
2018-04-22T00:08:37.377Z,1010.34
2018-04-22T00:09:37.307Z,1010.30
2018-04-22T00:10:37.240Z,1010.31
2018-04-22T00:11:37.166Z,1010.30
2018-04-22T00:12:37.096Z,1010.26
2018-04-22T00:13:37.026Z,1010.29
2018-04-22T00:14:36.962Z,1010.27
2018-04-22T00:15:36.888Z,1010.25
2018-04-22T00:16:36.815Z,1010.28
2018-04-22T00:17:36.748Z,1010.24
2018-04-22T00:18:36.676Z,1010.27
2018-04-22T00:19:36.608Z,1010.25
2018-04-22T00:20:36.538Z,1010.20
2018-04-22T00:21:36.464Z,1010.22
2018-04-22T00:22:36.396Z,1010.22
2018-04-22T00:23:36.326Z,1010.19
2018-04-22T00:24:36.254Z,1010.17
2018-04-22T00:25:36.182Z,1010.14
2018-04-22T00:26:36.117Z,1010.16
2018-04-22T00:27:36.043Z,1010.15
2018-04-22T00:28:35.972Z,1010.11
2018-04-22T00:29:35.901Z,1010.13
2018-04-22T00:30:35.853Z,1010.12
2018-04-22T00:31:35.761Z,1010.09
2018-04-22T00:32:35.693Z,1010.10
2018-04-22T00:33:35.620Z,1010.13
2018-04-22T00:34:35.599Z,1010.09
2018-04-22T00:35:35.480Z,1010.10
2018-04-22T00:36:35.416Z,1010.07
2018-04-22T00:37:35.349Z,1010.07
2018-04-22T00:38:35.269Z,1010.03
2018-04-22T00:39:35.200Z,1010.10
2018-04-22T00:40:35.132Z,1010.03
2018-04-22T00:41:35.058Z,1010.03
2018-04-22T00:42:34.994Z,1010.01
2018-04-22T00:43:34.948Z,1009.96
2018-04-22T00:44:34.853Z,1009.90
2018-04-22T00:45:34.776Z,1009.95
2018-04-22T00:46:34.707Z,1009.92
2018-04-22T00:47:34.638Z,1009.95
2018-04-22T00:48:34.567Z,1009.91
2018-04-22T00:49:34.499Z,1009.89
2018-04-22T00:50:34.427Z,1009.90
2018-04-22T00:51:34.356Z,1009.86
2018-04-22T00:52:34.286Z,1009.91
2018-04-22T00:53:34.212Z,1009.90
2018-04-22T00:54:34.147Z,1009.86
2018-04-22T00:55:34.075Z,1009.87
2018-04-22T00:56:34.003Z,1009.86
2018-04-22T00:57:33.990Z,1009.86
2018-04-22T00:58:33.864Z,1009.85
2018-04-22T00:59:33.800Z,1009.85
2018-04-22T01:00:33.744Z,1009.79
2018-04-22T01:01:33.652Z,1009.82
2018-04-22T01:02:33.582Z,1009.77
2018-04-22T01:03:33.521Z,1009.76
2018-04-22T01:04:33.442Z,1009.77
2018-04-22T01:05:33.370Z,1009.75
2018-04-22T01:06:33.301Z,1009.73
2018-04-22T01:07:33.231Z,1009.74
2018-04-22T01:08:33.160Z,1009.70
2018-04-22T01:09:33.086Z,1009.68
2018-04-22T01:10:33.018Z,1009.69
2018-04-22T01:11:32.952Z,1009.70
2018-04-22T01:12:32.877Z,1009.68
2018-04-22T01:13:32.810Z,1009.68
2018-04-22T01:14:32.737Z,1009.68
2018-04-22T01:15:32.667Z,1009.65
2018-04-22T01:16:32.597Z,1009.63
2018-04-22T01:17:32.524Z,1009.66
2018-04-22T01:18:32.455Z,1009.62
2018-04-22T01:19:32.402Z,1009.65
2018-04-22T01:20:32.314Z,1009.63
2018-04-22T01:21:32.245Z,1009.62
2018-04-22T01:22:32.171Z,1009.59
2018-04-22T01:23:32.103Z,1009.58
2018-04-22T01:24:32.035Z,1009.58
2018-04-22T01:25:31.962Z,1009.61
2018-04-22T01:26:31.894Z,1009.55
2018-04-22T01:27:31.824Z,1009.57
2018-04-22T01:28:31.752Z,1009.53
2018-04-22T01:29:31.681Z,1009.56
2018-04-22T01:30:31.612Z,1009.51
2018-04-22T01:31:31.541Z,1009.54
2018-04-22T01:32:31.472Z,1009.52
2018-04-22T01:33:31.402Z,1009.47
2018-04-22T01:34:31.330Z,1009.46
2018-04-22T01:35:31.262Z,1009.45
2018-04-22T01:36:31.190Z,1009.46
2018-04-22T01:37:31.119Z,1009.46
2018-04-22T01:38:31.050Z,1009.50
2018-04-22T01:39:30.981Z,1009.44
2018-04-22T01:40:30.910Z,1009.47
2018-04-22T01:41:30.839Z,1009.48
2018-04-22T01:42:30.767Z,1009.46
2018-04-22T01:43:30.704Z,1009.41
2018-04-22T01:44:30.623Z,1009.44
2018-04-22T01:45:30.559Z,1009.41
2018-04-22T01:46:30.491Z,1009.43
2018-04-22T01:47:30.416Z,1009.42
2018-04-22T01:48:30.346Z,1009.40
2018-04-22T01:49:30.284Z,1009.40
2018-04-22T01:50:30.203Z,1009.34
2018-04-22T01:51:30.134Z,1009.33
2018-04-22T01:52:30.063Z,1009.32
2018-04-22T01:53:29.996Z,1009.33
2018-04-22T01:54:29.930Z,1009.33
2018-04-22T01:55:29.852Z,1009.32
2018-04-22T01:56:29.782Z,1009.30
2018-04-22T01:57:29.708Z,1009.30
2018-04-22T01:58:29.636Z,1009.31
2018-04-22T01:59:29.567Z,1009.31
2018-04-22T02:00:29.494Z,1009.32
2018-04-22T02:01:29.427Z,1009.23
2018-04-22T02:02:29.356Z,1009.28
2018-04-22T02:03:29.285Z,1009.28
2018-04-22T02:04:29.214Z,1009.27
2018-04-22T02:05:29.142Z,1009.32
2018-04-22T02:06:29.072Z,1009.29
2018-04-22T02:07:29.001Z,1009.28
2018-04-22T02:08:28.932Z,1009.28
2018-04-22T02:09:28.862Z,1009.29
2018-04-22T02:10:28.789Z,1009.26
2018-04-22T02:11:28.720Z,1009.27
2018-04-22T02:12:28.648Z,1009.23
2018-04-22T02:13:28.576Z,1009.22
2018-04-22T02:14:28.506Z,1009.25
2018-04-22T02:15:28.439Z,1009.21
2018-04-22T02:16:28.366Z,1009.19
2018-04-22T02:17:28.294Z,1009.21
2018-04-22T02:18:28.228Z,1009.21
2018-04-22T02:19:28.152Z,1009.21
2018-04-22T02:20:28.083Z,1009.20
2018-04-22T02:21:28.011Z,1009.21
2018-04-22T02:22:27.940Z,1009.22
2018-04-22T02:23:27.870Z,1009.17
2018-04-22T02:24:27.851Z,1009.19
2018-04-22T02:25:27.728Z,1009.18
2018-04-22T02:26:27.657Z,1009.17
2018-04-22T02:27:27.594Z,1009.17
2018-04-22T02:28:27.520Z,1009.14
2018-04-22T02:29:27.445Z,1009.13
2018-04-22T02:30:27.375Z,1009.15
2018-04-22T02:31:27.306Z,1009.17
2018-04-22T02:32:27.234Z,1009.13
2018-04-22T02:33:27.162Z,1009.16
2018-04-22T02:34:27.090Z,1009.14
2018-04-22T02:35:27.021Z,1009.14
2018-04-22T02:36:26.949Z,1009.10
2018-04-22T02:37:26.877Z,1009.12
2018-04-22T02:38:26.809Z,1009.08
2018-04-22T02:39:26.736Z,1009.12
2018-04-22T02:40:26.668Z,1009.11
2018-04-22T02:41:26.594Z,1009.12
2018-04-22T02:42:26.525Z,1009.12
2018-04-22T02:43:26.456Z,1009.08
2018-04-22T02:44:26.385Z,1009.07
2018-04-22T02:45:26.311Z,1009.07
2018-04-22T02:46:26.243Z,1009.09
2018-04-22T02:47:26.169Z,1009.01
2018-04-22T02:48:26.097Z,1009.03
2018-04-22T02:49:26.037Z,1009.03
2018-04-22T02:50:25.955Z,1008.95
2018-04-22T02:51:25.891Z,1008.97
2018-04-22T02:52:25.816Z,1008.95
2018-04-22T02:53:25.742Z,1008.95
2018-04-22T02:54:25.671Z,1008.92
2018-04-22T02:55:25.602Z,1008.90
2018-04-22T02:56:25.534Z,1008.90
2018-04-22T02:57:25.460Z,1008.92
2018-04-22T02:58:25.388Z,1008.92
2018-04-22T02:59:25.321Z,1008.91
2018-04-22T03:00:25.253Z,1008.86
2018-04-22T03:01:25.177Z,1008.88
2018-04-22T03:02:25.102Z,1008.86
2018-04-22T03:03:25.033Z,1008.84
2018-04-22T03:04:24.968Z,1008.88
2018-04-22T03:05:24.893Z,1008.86
2018-04-22T03:06:24.820Z,1008.84
2018-04-22T03:07:24.749Z,1008.78
2018-04-22T03:08:24.682Z,1008.81
2018-04-22T03:09:24.606Z,1008.81
2018-04-22T03:10:24.536Z,1008.77
2018-04-22T03:11:24.466Z,1008.80
2018-04-22T03:12:24.406Z,1008.77
2018-04-22T03:13:24.325Z,1008.80
2018-04-22T03:14:24.256Z,1008.77
2018-04-22T03:15:24.181Z,1008.74
2018-04-22T03:16:24.109Z,1008.74
2018-04-22T03:17:24.040Z,1008.73
2018-04-22T03:18:23.968Z,1008.70
2018-04-22T03:19:23.898Z,1008.75
2018-04-22T03:20:23.825Z,1008.69
2018-04-22T03:21:23.755Z,1008.70
2018-04-22T03:22:23.686Z,1008.68
2018-04-22T03:23:23.618Z,1008.68
2018-04-22T03:24:23.542Z,1008.69
2018-04-22T03:25:23.473Z,1008.69
2018-04-22T03:26:23.401Z,1008.69
2018-04-22T03:27:23.328Z,1008.70
2018-04-22T03:28:23.258Z,1008.69
2018-04-22T03:29:23.186Z,1008.70
2018-04-22T03:30:23.117Z,1008.68
2018-04-22T03:31:23.044Z,1008.67
2018-04-22T03:32:22.972Z,1008.63
2018-04-22T03:33:22.905Z,1008.64
2018-04-22T03:34:22.835Z,1008.58
2018-04-22T03:35:22.760Z,1008.60
2018-04-22T03:36:22.688Z,1008.58
2018-04-22T03:37:22.616Z,1008.57
2018-04-22T03:38:22.545Z,1008.56
2018-04-22T03:39:22.474Z,1008.56
2018-04-22T03:40:22.406Z,1008.59
2018-04-22T03:41:22.334Z,1008.56
2018-04-22T03:42:22.263Z,1008.56
2018-04-22T03:43:22.191Z,1008.57
2018-04-22T03:44:22.119Z,1008.56
2018-04-22T03:45:22.049Z,1008.53
2018-04-22T03:46:21.980Z,1008.56
2018-04-22T03:47:21.907Z,1008.52
2018-04-22T03:48:21.837Z,1008.50
2018-04-22T03:49:21.765Z,1008.50
2018-04-22T03:50:21.696Z,1008.48
2018-04-22T03:51:21.628Z,1008.45
2018-04-22T03:52:21.562Z,1008.48
2018-04-22T03:53:21.479Z,1008.50
2018-04-22T03:54:21.409Z,1008.44
2018-04-22T03:55:21.340Z,1008.49
2018-04-22T03:56:21.265Z,1008.49
2018-04-22T03:57:21.196Z,1008.44
2018-04-22T03:58:21.126Z,1008.47
2018-04-22T03:59:21.054Z,1008.40
2018-04-22T04:00:20.984Z,1008.38
2018-04-22T04:01:20.911Z,1008.39
2018-04-22T04:02:20.843Z,1008.39
2018-04-22T04:03:20.773Z,1008.34
2018-04-22T04:04:20.701Z,1008.35
2018-04-22T04:05:20.628Z,1008.33
2018-04-22T04:06:20.558Z,1008.37
2018-04-22T04:07:20.485Z,1008.31
2018-04-22T04:08:20.413Z,1008.31
2018-04-22T04:09:20.350Z,1008.30
2018-04-22T04:10:20.271Z,1008.24
2018-04-22T04:11:20.200Z,1008.25
2018-04-22T04:12:20.130Z,1008.24
2018-04-22T04:13:20.056Z,1008.20
2018-04-22T04:14:19.981Z,1008.22
2018-04-22T04:15:19.918Z,1008.17
2018-04-22T04:16:19.844Z,1008.18
2018-04-22T04:17:19.773Z,1008.18
2018-04-22T04:18:19.703Z,1008.20
2018-04-22T04:19:19.686Z,1008.22
2018-04-22T04:20:19.560Z,1008.25
2018-04-22T04:21:19.486Z,1008.21
2018-04-22T04:22:19.412Z,1008.19
2018-04-22T04:23:19.347Z,1008.15
2018-04-22T04:24:19.273Z,1008.14
2018-04-22T04:25:19.222Z,1008.16
2018-04-22T04:26:19.132Z,1008.13
2018-04-22T04:27:19.061Z,1008.12
2018-04-22T04:28:18.987Z,1008.15
2018-04-22T04:29:18.917Z,1008.13
2018-04-22T04:30:18.845Z,1008.16
2018-04-22T04:31:18.776Z,1008.16
2018-04-22T04:32:18.705Z,1008.18
2018-04-22T04:33:18.633Z,1008.15
2018-04-22T04:34:18.564Z,1008.13
2018-04-22T04:35:18.489Z,1008.15
2018-04-22T04:36:18.419Z,1008.14
2018-04-22T04:37:18.351Z,1008.11
2018-04-22T04:38:18.285Z,1008.08
2018-04-22T04:39:18.205Z,1008.11
2018-04-22T04:40:18.153Z,1008.10
2018-04-22T04:41:18.061Z,1008.12
2018-04-22T04:42:17.992Z,1008.11
2018-04-22T04:43:17.919Z,1008.13
2018-04-22T04:44:17.848Z,1008.11
2018-04-22T04:45:17.777Z,1008.13
2018-04-22T04:46:17.705Z,1008.14
2018-04-22T04:47:17.634Z,1008.15
2018-04-22T04:48:17.563Z,1008.17
2018-04-22T04:49:17.503Z,1008.11
2018-04-22T04:50:17.423Z,1008.16
2018-04-22T04:51:17.343Z,1008.12
2018-04-22T04:52:17.278Z,1008.08
2018-04-22T04:53:17.206Z,1008.09
2018-04-22T04:54:17.184Z,1008.11
2018-04-22T04:55:17.102Z,1008.07
2018-04-22T04:56:16.988Z,1008.12
2018-04-22T04:57:16.920Z,1008.04
2018-04-22T04:58:16.857Z,1008.11
2018-04-22T04:59:16.778Z,1008.04
2018-04-22T05:00:16.710Z,1008.07
2018-04-22T05:01:16.636Z,1008.06
2018-04-22T05:02:16.570Z,1008.05
2018-04-22T05:03:16.494Z,1008.05
2018-04-22T05:04:16.424Z,1008.03
2018-04-22T05:05:16.356Z,1008.03
2018-04-22T05:06:16.278Z,1007.97
2018-04-22T05:07:16.213Z,1008.03
2018-04-22T05:08:16.154Z,1008.01
2018-04-22T05:09:16.066Z,1008.01
2018-04-22T05:10:15.999Z,1008.00
2018-04-22T05:11:15.923Z,1008.03
2018-04-22T05:12:15.852Z,1008.03
2018-04-22T05:13:15.779Z,1008.03
2018-04-22T05:14:15.713Z,1008.05
2018-04-22T05:15:15.638Z,1008.02
2018-04-22T05:16:15.565Z,1008.03
2018-04-22T05:17:15.498Z,1008.03
2018-04-22T05:18:15.423Z,1008.04
2018-04-22T05:19:15.352Z,1008.04
2018-04-22T05:20:15.280Z,1008.05
2018-04-22T05:21:15.211Z,1008.09
2018-04-22T05:22:15.138Z,1008.04
2018-04-22T05:23:15.067Z,1008.01
2018-04-22T05:24:15.001Z,1008.00
2018-04-22T05:25:14.925Z,1008.05
2018-04-22T05:26:14.854Z,1008.06
2018-04-22T05:27:14.788Z,1008.09
2018-04-22T05:28:14.710Z,1008.04
2018-04-22T05:29:14.640Z,1008.13
2018-04-22T05:30:14.570Z,1008.11
2018-04-22T05:31:14.545Z,1008.11
2018-04-22T05:32:14.428Z,1008.11
2018-04-22T05:33:14.355Z,1008.11
2018-04-22T05:34:14.286Z,1008.12
2018-04-22T05:35:14.217Z,1008.05
2018-04-22T05:36:14.147Z,1008.01
2018-04-22T05:37:14.072Z,1008.04
2018-04-22T05:38:13.999Z,1008.06
2018-04-22T05:39:13.936Z,1008.02
2018-04-22T05:40:13.858Z,1008.03
2018-04-22T05:41:13.787Z,1008.00
2018-04-22T05:42:13.716Z,1008.05
2018-04-22T05:43:13.645Z,1008.02
2018-04-22T05:44:13.575Z,1008.03
2018-04-22T05:45:13.502Z,1008.02
2018-04-22T05:46:13.434Z,1008.04
2018-04-22T05:47:13.361Z,1008.05
2018-04-22T05:48:13.291Z,1008.02
2018-04-22T05:49:13.218Z,1007.99
2018-04-22T05:50:13.155Z,1008.03
2018-04-22T05:51:13.080Z,1007.97
2018-04-22T05:52:13.008Z,1008.00
2018-04-22T05:53:12.933Z,1008.02
2018-04-22T05:54:12.874Z,1008.01
2018-04-22T05:55:12.795Z,1008.00
2018-04-22T05:56:12.727Z,1007.96
2018-04-22T05:57:12.653Z,1007.96
2018-04-22T05:58:12.582Z,1007.99
2018-04-22T05:59:12.513Z,1007.98
2018-04-22T06:00:12.440Z,1007.95
2018-04-22T06:01:12.372Z,1007.98
2018-04-22T06:02:12.332Z,1007.98
2018-04-22T06:03:12.230Z,1008.01
2018-04-22T06:04:12.159Z,1007.95
2018-04-22T06:05:12.085Z,1007.96
2018-04-22T06:06:12.016Z,1007.95
2018-04-22T06:07:11.948Z,1007.97
2018-04-22T06:08:11.877Z,1007.94
2018-04-22T06:09:11.804Z,1007.91
2018-04-22T06:10:11.741Z,1007.93
2018-04-22T06:11:11.666Z,1007.93
2018-04-22T06:12:11.592Z,1007.91
2018-04-22T06:13:11.523Z,1007.94
2018-04-22T06:14:11.457Z,1007.90
2018-04-22T06:15:11.383Z,1007.90
2018-04-22T06:16:11.313Z,1007.88
2018-04-22T06:17:11.243Z,1007.91
2018-04-22T06:18:11.172Z,1007.89
2018-04-22T06:19:11.105Z,1007.87
2018-04-22T06:20:11.031Z,1007.91
2018-04-22T06:21:10.961Z,1007.91
2018-04-22T06:22:10.891Z,1007.87
2018-04-22T06:23:10.822Z,1007.88
2018-04-22T06:24:10.750Z,1007.88
2018-04-22T06:25:10.679Z,1007.89
2018-04-22T06:26:10.610Z,1007.88
2018-04-22T06:27:10.541Z,1007.90
2018-04-22T06:28:10.468Z,1007.85
2018-04-22T06:29:10.398Z,1007.87
2018-04-22T06:30:10.329Z,1007.85
2018-04-22T06:31:10.262Z,1007.83
2018-04-22T06:32:10.192Z,1007.85
2018-04-22T06:33:10.119Z,1007.80
2018-04-22T06:34:10.050Z,1007.77
2018-04-22T06:35:09.978Z,1007.76
2018-04-22T06:36:09.914Z,1007.79
2018-04-22T06:37:09.838Z,1007.78
2018-04-22T06:38:09.770Z,1007.77
2018-04-22T06:39:09.699Z,1007.75
2018-04-22T06:40:09.632Z,1007.78
2018-04-22T06:41:09.560Z,1007.78
2018-04-22T06:42:09.490Z,1007.75
2018-04-22T06:43:09.429Z,1007.78
2018-04-22T06:44:09.352Z,1007.76
2018-04-22T06:45:09.280Z,1007.77
2018-04-22T06:46:09.220Z,1007.70
2018-04-22T06:47:09.140Z,1007.65
2018-04-22T06:48:09.074Z,1007.63
2018-04-22T06:49:09.002Z,1007.63
2018-04-22T06:50:08.936Z,1007.60
2018-04-22T06:51:08.864Z,1007.62
2018-04-22T06:52:08.796Z,1007.59
2018-04-22T06:53:08.723Z,1007.56
2018-04-22T06:54:08.659Z,1007.56
2018-04-22T06:55:08.603Z,1007.59
2018-04-22T06:56:08.514Z,1007.58
2018-04-22T06:57:08.440Z,1007.58
2018-04-22T06:58:08.376Z,1007.55
2018-04-22T06:59:08.312Z,1007.54
2018-04-22T07:00:08.239Z,1007.55
2018-04-22T07:01:08.164Z,1007.54
2018-04-22T07:02:08.114Z,1007.52
2018-04-22T07:03:08.030Z,1007.54
2018-04-22T07:04:07.965Z,1007.52
2018-04-22T07:05:07.893Z,1007.49
2018-04-22T07:06:07.820Z,1007.52
2018-04-22T07:07:07.760Z,1007.50
2018-04-22T07:08:07.684Z,1007.52
2018-04-22T07:09:07.614Z,1007.49
2018-04-22T07:10:07.547Z,1007.45
2018-04-22T07:11:07.477Z,1007.46
2018-04-22T07:12:07.409Z,1007.51
2018-04-22T07:13:07.338Z,1007.48
2018-04-22T07:14:07.278Z,1007.48
2018-04-22T07:15:07.203Z,1007.45
2018-04-22T07:16:07.136Z,1007.50
2018-04-22T07:17:07.063Z,1007.47
2018-04-22T07:18:06.993Z,1007.43
2018-04-22T07:19:06.924Z,1007.39
2018-04-22T07:20:06.858Z,1007.44
2018-04-22T07:21:06.787Z,1007.44
2018-04-22T07:22:06.724Z,1007.44
2018-04-22T07:23:06.659Z,1007.51
2018-04-22T07:24:06.603Z,1007.49
2018-04-22T07:25:06.516Z,1007.47
2018-04-22T07:26:06.447Z,1007.52
2018-04-22T07:27:06.378Z,1007.49
2018-04-22T07:28:06.319Z,1007.52
2018-04-22T07:29:06.248Z,1007.50
2018-04-22T07:30:06.173Z,1007.51
2018-04-22T07:31:06.104Z,1007.55
2018-04-22T07:32:06.049Z,1007.52
2018-04-22T07:33:05.970Z,1007.53
2018-04-22T07:34:05.901Z,1007.51
2018-04-22T07:35:05.838Z,1007.52
2018-04-22T07:36:05.764Z,1007.50
2018-04-22T07:37:05.696Z,1007.52
2018-04-22T07:38:05.630Z,1007.56
2018-04-22T07:39:05.563Z,1007.56
2018-04-22T07:40:05.494Z,1007.52
2018-04-22T07:41:05.424Z,1007.54
2018-04-22T07:42:05.365Z,1007.53
2018-04-22T07:43:05.288Z,1007.55
2018-04-22T07:44:05.220Z,1007.51
2018-04-22T07:45:05.156Z,1007.50
2018-04-22T07:46:05.084Z,1007.47
2018-04-22T07:47:05.015Z,1007.49
2018-04-22T07:48:04.947Z,1007.49
2018-04-22T07:49:04.881Z,1007.50
2018-04-22T07:50:04.813Z,1007.50
2018-04-22T07:51:04.746Z,1007.46
2018-04-22T07:52:04.677Z,1007.47
2018-04-22T07:53:04.609Z,1007.53
2018-04-22T07:54:04.542Z,1007.55
2018-04-22T07:55:04.472Z,1007.49
2018-04-22T07:56:04.406Z,1007.53
2018-04-22T07:57:04.337Z,1007.56
2018-04-22T07:58:04.269Z,1007.56
2018-04-22T07:59:04.202Z,1007.56
2018-04-22T08:00:04.133Z,1007.49
2018-04-22T08:01:04.069Z,1007.53
2018-04-22T08:02:04.000Z,1007.66
2018-04-22T08:03:03.936Z,1007.59
2018-04-22T08:04:03.864Z,1007.53
2018-04-22T08:05:03.797Z,1007.59
2018-04-22T08:06:03.729Z,1007.68
2018-04-22T08:07:03.662Z,1007.65
2018-04-22T08:08:03.594Z,1007.64
2018-04-22T08:09:03.524Z,1007.69
2018-04-22T08:10:03.460Z,1007.72
2018-04-22T08:11:03.391Z,1007.74
2018-04-22T08:12:03.325Z,1007.69
2018-04-22T08:13:03.259Z,1007.74
2018-04-22T08:14:03.190Z,1007.75
2018-04-22T08:15:03.122Z,1007.73
2018-04-22T08:16:03.055Z,1007.75
2018-04-22T08:17:02.988Z,1007.73
2018-04-22T08:18:02.922Z,1007.73
2018-04-22T08:19:02.859Z,1007.72
2018-04-22T08:20:02.787Z,1007.71
2018-04-22T08:21:02.721Z,1007.73
2018-04-22T08:22:02.653Z,1007.71
2018-04-22T08:23:02.590Z,1007.72
2018-04-22T08:24:02.519Z,1007.68
2018-04-22T08:25:02.455Z,1007.67
2018-04-22T08:26:02.386Z,1007.68
2018-04-22T08:27:02.318Z,1007.65
2018-04-22T08:28:02.258Z,1007.62
2018-04-22T08:29:02.185Z,1007.67
2018-04-22T08:30:02.121Z,1007.62
2018-04-22T08:31:02.049Z,1007.65
2018-04-22T08:32:01.990Z,1007.64
2018-04-22T08:33:01.921Z,1007.64
2018-04-22T08:34:01.869Z,1007.65
2018-04-22T08:35:01.785Z,1007.62
2018-04-22T08:36:01.719Z,1007.63
2018-04-22T08:37:01.650Z,1007.61
2018-04-22T08:38:01.589Z,1007.61
2018-04-22T08:39:01.528Z,1007.56
2018-04-22T08:40:01.455Z,1007.59
2018-04-22T08:41:01.389Z,1007.63
2018-04-22T08:42:01.322Z,1007.68
2018-04-22T08:43:01.255Z,1007.68
2018-04-22T08:44:01.232Z,1007.65
2018-04-22T08:45:01.125Z,1007.62
2018-04-22T08:46:01.063Z,1007.62
2018-04-22T08:47:00.992Z,1007.65
2018-04-22T08:48:00.927Z,1007.62
2018-04-22T08:49:00.861Z,1007.60
2018-04-22T08:50:00.796Z,1007.57
2018-04-22T08:51:00.731Z,1007.55
2018-04-22T08:52:00.664Z,1007.55
2018-04-22T08:53:00.597Z,1007.52
2018-04-22T08:54:00.532Z,1007.52
2018-04-22T08:55:00.497Z,1007.54
2018-04-22T08:56:00.444Z,1007.48
2018-04-22T08:57:00.335Z,1007.50
2018-04-22T08:58:00.268Z,1007.51
2018-04-22T08:59:00.205Z,1007.50
2018-04-22T09:00:00.139Z,1007.47
2018-04-22T09:01:00.074Z,1007.48
2018-04-22T09:02:00.010Z,1007.48
2018-04-22T09:02:59.943Z,1007.45
2018-04-22T09:03:59.880Z,1007.47
2018-04-22T09:04:59.817Z,1007.48
2018-04-22T09:05:59.752Z,1007.50
2018-04-22T09:06:59.684Z,1007.42
2018-04-22T09:07:59.625Z,1007.42
2018-04-22T09:08:59.564Z,1007.41
2018-04-22T09:09:59.496Z,1007.41
2018-04-22T09:10:59.430Z,1007.39
2018-04-22T09:11:59.371Z,1007.40
2018-04-22T09:12:59.306Z,1007.36
2018-04-22T09:13:59.246Z,1007.37
2018-04-22T09:14:59.184Z,1007.36
2018-04-22T09:15:59.122Z,1007.33
2018-04-22T09:16:59.061Z,1007.30
2018-04-22T09:17:59.000Z,1007.26
2018-04-22T09:18:58.931Z,1007.24
2018-04-22T09:19:58.870Z,1007.27
2018-04-22T09:20:58.808Z,1007.27
2018-04-22T09:21:58.754Z,1007.31
2018-04-22T09:22:58.688Z,1007.24
2018-04-22T09:23:58.624Z,1007.30
2018-04-22T09:24:58.561Z,1007.28
2018-04-22T09:25:58.502Z,1007.27
2018-04-22T09:26:58.441Z,1007.25
2018-04-22T09:27:58.407Z,1007.24
2018-04-22T09:28:58.321Z,1007.31
2018-04-22T09:29:58.262Z,1007.31
2018-04-22T09:30:58.202Z,1007.28
2018-04-22T09:31:58.141Z,1007.29
2018-04-22T09:32:58.089Z,1007.26
2018-04-22T09:33:58.026Z,1007.25
2018-04-22T09:34:57.966Z,1007.27
2018-04-22T09:35:57.911Z,1007.24
2018-04-22T09:36:57.851Z,1007.24
2018-04-22T09:37:57.793Z,1007.20
2018-04-22T09:38:57.736Z,1007.16
2018-04-22T09:39:57.678Z,1007.22
2018-04-22T09:40:57.621Z,1007.22
2018-04-22T09:41:57.563Z,1007.29
2018-04-22T09:42:57.505Z,1007.18
2018-04-22T09:43:57.447Z,1007.29
2018-04-22T09:44:57.393Z,1007.23
2018-04-22T09:45:57.342Z,1007.28
2018-04-22T09:46:57.278Z,1007.27
2018-04-22T09:47:57.223Z,1007.27
2018-04-22T09:48:57.164Z,1007.25
2018-04-22T09:49:57.151Z,1007.23
2018-04-22T09:50:57.053Z,1007.19
2018-04-22T09:51:56.998Z,1007.23
2018-04-22T09:52:56.942Z,1007.20
2018-04-22T09:53:56.887Z,1007.20
2018-04-22T09:54:56.832Z,1007.18
2018-04-22T09:55:56.780Z,1007.18
2018-04-22T09:56:56.723Z,1007.16
2018-04-22T09:57:56.669Z,1007.16
2018-04-22T09:58:56.616Z,1007.15
2018-04-22T09:59:56.564Z,1007.13
2018-04-22T10:00:56.511Z,1007.14
2018-04-22T10:01:56.454Z,1007.11
2018-04-22T10:02:56.401Z,1007.13
2018-04-22T10:03:56.348Z,1007.08
2018-04-22T10:04:56.336Z,1007.08
2018-04-22T10:05:56.240Z,1007.09
2018-04-22T10:06:56.191Z,1007.00
2018-04-22T10:07:56.136Z,1007.00
2018-04-22T10:08:56.086Z,1006.96
2018-04-22T10:09:56.027Z,1006.96
2018-04-22T10:10:55.981Z,1006.87
2018-04-22T10:11:55.919Z,1006.90
2018-04-22T10:12:55.864Z,1006.90
2018-04-22T10:13:55.810Z,1006.88
2018-04-22T10:14:55.757Z,1006.88
2018-04-22T10:15:55.706Z,1006.85
2018-04-22T10:16:55.648Z,1006.82
2018-04-22T10:17:55.592Z,1006.80
2018-04-22T10:18:55.537Z,1006.81
2018-04-22T10:19:55.482Z,1006.80
2018-04-22T10:20:55.428Z,1006.78
2018-04-22T10:21:55.389Z,1006.76
2018-04-22T10:22:55.318Z,1006.76
2018-04-22T10:23:55.261Z,1006.73
2018-04-22T10:24:55.207Z,1006.69
2018-04-22T10:25:55.152Z,1006.72
2018-04-22T10:26:55.099Z,1006.68
2018-04-22T10:27:55.043Z,1006.68
2018-04-22T10:28:54.987Z,1006.65
2018-04-22T10:29:54.934Z,1006.68
2018-04-22T10:30:54.877Z,1006.68
2018-04-22T10:31:54.824Z,1006.66
2018-04-22T10:32:54.768Z,1006.63
2018-04-22T10:33:54.713Z,1006.59
2018-04-22T10:34:54.657Z,1006.52
2018-04-22T10:35:54.605Z,1006.49
2018-04-22T10:36:54.575Z,1006.48
2018-04-22T10:37:54.495Z,1006.45
2018-04-22T10:38:54.441Z,1006.46
2018-04-22T10:39:54.383Z,1006.48
2018-04-22T10:40:54.331Z,1006.41
2018-04-22T10:41:54.276Z,1006.38
2018-04-22T10:42:54.220Z,1006.34
2018-04-22T10:43:54.159Z,1006.25
2018-04-22T10:44:54.110Z,1006.24
2018-04-22T10:45:54.051Z,1006.22
2018-04-22T10:46:53.995Z,1006.21
2018-04-22T10:47:53.939Z,1006.24
2018-04-22T10:48:53.882Z,1006.23
2018-04-22T10:49:53.824Z,1006.18
2018-04-22T10:50:53.770Z,1006.13
2018-04-22T10:51:53.711Z,1006.12
2018-04-22T10:52:53.653Z,1006.15
2018-04-22T10:53:53.612Z,1006.13
2018-04-22T10:54:53.537Z,1006.12
2018-04-22T10:55:53.481Z,1006.10
2018-04-22T10:56:53.423Z,1006.12
2018-04-22T10:57:53.435Z,1006.05
2018-04-22T10:58:53.308Z,1006.05
2018-04-22T10:59:53.296Z,1005.97
2018-04-22T11:00:53.193Z,1005.92
2018-04-22T11:01:53.137Z,1005.92
2018-04-22T11:02:53.077Z,1005.92
2018-04-22T11:03:53.013Z,1005.95
2018-04-22T11:04:52.960Z,1005.91
2018-04-22T11:05:52.905Z,1005.98
2018-04-22T11:06:52.839Z,1005.94
2018-04-22T11:07:52.782Z,1005.92
2018-04-22T11:08:52.732Z,1005.87
2018-04-22T11:09:52.663Z,1005.83
2018-04-22T11:10:52.603Z,1005.87
2018-04-22T11:11:52.548Z,1005.82
2018-04-22T11:12:52.485Z,1005.75
2018-04-22T11:13:52.424Z,1005.70
2018-04-22T11:14:52.364Z,1005.77
2018-04-22T11:15:52.316Z,1005.61
2018-04-22T11:16:52.246Z,1005.63
2018-04-22T11:17:52.189Z,1005.65
2018-04-22T11:18:52.131Z,1005.64
2018-04-22T11:19:52.067Z,1005.65
2018-04-22T11:20:52.014Z,1005.59
2018-04-22T11:21:51.948Z,1005.59
2018-04-22T11:22:51.891Z,1005.60
2018-04-22T11:23:51.829Z,1005.56
2018-04-22T11:24:51.766Z,1005.55
2018-04-22T11:25:51.709Z,1005.57
2018-04-22T11:26:51.649Z,1005.55
2018-04-22T11:27:51.588Z,1005.54
2018-04-22T11:28:51.540Z,1005.47
2018-04-22T11:29:51.469Z,1005.46
2018-04-22T11:30:51.413Z,1005.40
2018-04-22T11:31:51.351Z,1005.44
2018-04-22T11:32:51.286Z,1005.43
2018-04-22T11:33:51.230Z,1005.44
2018-04-22T11:34:51.171Z,1005.43
2018-04-22T11:35:51.107Z,1005.40
2018-04-22T11:36:51.047Z,1005.46
2018-04-22T11:37:50.991Z,1005.31
2018-04-22T11:38:50.932Z,1005.32
2018-04-22T11:39:50.865Z,1005.29
2018-04-22T11:40:50.807Z,1005.24
2018-04-22T11:41:50.748Z,1005.27
2018-04-22T11:42:50.686Z,1005.28
2018-04-22T11:43:50.624Z,1005.19
2018-04-22T11:44:50.564Z,1005.21
2018-04-22T11:45:50.502Z,1005.23
2018-04-22T11:46:50.439Z,1005.23
2018-04-22T11:47:50.412Z,1005.27
2018-04-22T11:48:50.324Z,1005.21
2018-04-22T11:49:50.259Z,1005.32
2018-04-22T11:50:50.200Z,1005.34
2018-04-22T11:51:50.142Z,1005.21
2018-04-22T11:52:50.077Z,1005.22
2018-04-22T11:53:50.018Z,1005.25
2018-04-22T11:54:49.960Z,1005.16
2018-04-22T11:55:49.902Z,1005.15
2018-04-22T11:56:49.835Z,1005.11
2018-04-22T11:57:49.787Z,1005.08
2018-04-22T11:58:49.718Z,1005.11
2018-04-22T11:59:49.665Z,1005.12
2018-04-22T12:00:49.597Z,1005.11
2018-04-22T12:01:49.538Z,1005.12
2018-04-22T12:02:49.479Z,1005.14
2018-04-22T12:03:49.419Z,1005.13
2018-04-22T12:04:49.363Z,1005.15